Estación Meteorológica Peña el Pijo (Robertgarden) [ 01/30/23 14:05:36 CET ]

Fecha Hora Presion(HPa) Temp (°C) Humedad % Rocio (°C) Viento ( m/s) Direccion Lluvia 1Hora(mm) Lluvia 24H(mm) LLuvia Total(mm)
2012-Aug-16 01:01:16 1013.800 16.7 40 3.0         176.12
2012-Aug-16 02:01:11 1013.600 15.3 44 3.0         176.12
2012-Aug-16 03:01:45 1013.400 14.5 46 3.0         176.12
2012-Aug-16 04:03:21 1013.600 13.8 48 3.0         176.12
2012-Aug-16 05:01:18 1013.500 12.6 51 2.7         176.12
2012-Aug-16 06:01:14 1013.400 11.8 55 3.0         176.12
2012-Aug-16 07:01:14 1013.400 11.3 56 2.8         176.12
2012-Aug-16 08:01:11 1013.500 11.1 60 3.6         176.12
2012-Aug-16 09:01:16 1013.800 16.8 51 6.6         176.12
2012-Aug-16 10:01:12 1014.000 23.8 39 9.0         176.12
2012-Aug-16 11:01:13 1014.000 29.0 27 7.9         176.12
2012-Aug-16 12:01:14 1013.700 33.8 23 9.6         176.12
2012-Aug-16 13:01:13 1013.500 34.7 18 6.5         176.12
2012-Aug-16 14:01:15 1013.000 37.6 14 4.9 1.2 SSW     176.12
2012-Aug-16 15:01:18 1013.300 38.5 14 5.6 0.7 WSW     176.12
2012-Aug-16 16:01:17 1012.900 39.3 12 4.2 0.5 ENE     176.12
2012-Aug-16 17:01:13 1012.300 39.4 12 4.2 0.7 ENE     176.12
2012-Aug-16 18:01:15 1012.000 39.1 12 4.0 2.4 ENE     176.12
2012-Aug-16 19:01:11 1012.100 35.9 23 11.3 0.2 WNW     176.12
2012-Aug-16 20:01:13 1012.500 31.8 28 10.9         176.12
2012-Aug-16 21:01:14 1013.200 29.4 30 10.1         176.12
2012-Aug-16 22:01:13 1013.700 26.4 37 10.5         176.12
2012-Aug-16 23:01:19 1014.300 22.5 45 9.9         176.12

Temperatura Máxima:39°    Temperatura Mínima:11°
Presión Máxima:1014.300 Hpa    Presión Mínima:1012.000 Hpa


Volver